Terminal Aerodrome Forecast
Issued by NWS Cleveland, OH

Home | Current Version | Previous Version | Text Only | Print | Product List | Glossary On
Versions: 1 2 3 4 5 6 7 8 9 10 11 12 13 14 15 16 17 18 19 20 21
500
FTUS41 KCLE 172337
TAFMFD
TAF
KMFD 172337Z 1800/1824 25010G20KT P6SM OVC025
     FM180200 25010KT P6SM OVC006
     FM181300 26010KT 4SM BR OVC002
     FM181800 24008KT P6SM OVC006=

USA.gov is the U.S. government's official web portal to all federal, state and local government web resources and services.